createdAt,value
2022-08-22T00:00:59.072Z,101827.66
2022-08-22T00:02:57.071Z,101846.75
2022-08-22T00:03:09.333Z,101840.34
2022-08-22T00:03:39.909Z,101815.88
2022-08-22T00:06:13.367Z,101815.47
2022-08-22T00:09:03.620Z,101814.72
2022-08-22T00:11:52.127Z,101816.28
2022-08-22T00:14:20.024Z,101823.00
2022-08-22T00:17:13.318Z,101825.34
2022-08-22T00:19:55.515Z,101823.75
2022-08-22T00:22:48.350Z,101817.47
2022-08-22T00:25:49.177Z,101813.97
2022-08-22T00:28:21.274Z,101813.97
2022-08-22T00:30:59.256Z,101822.63
2022-08-22T00:33:32.916Z,101814.03
2022-08-22T00:36:09.572Z,101816.81
2022-08-22T00:38:42.424Z,101818.34
2022-08-22T00:41:27.424Z,101822.31
2022-08-22T00:44:11.193Z,101823.91
2022-08-22T00:46:52.847Z,101821.19
2022-08-22T00:49:44.107Z,101821.63
2022-08-22T00:52:17.920Z,101824.38
2022-08-22T00:55:03.067Z,101824.78
2022-08-22T00:58:04.427Z,101827.97
2022-08-22T01:00:40.727Z,101835.84
2022-08-22T01:03:34.904Z,101831.09
2022-08-22T01:06:01.252Z,101827.97
2022-08-22T01:08:37.755Z,101827.59
2022-08-22T01:11:26.643Z,101821.72
2022-08-22T01:14:02.388Z,101826.06
2022-08-22T01:16:30.171Z,101826.09
2022-08-22T01:19:06.052Z,101828.47
2022-08-22T01:22:14.619Z,101836.38
2022-08-22T01:25:11.677Z,101830.88
2022-08-22T01:28:05.278Z,101824.97
2022-08-22T01:30:52.941Z,101826.16
2022-08-22T01:33:49.327Z,101826.56
2022-08-22T01:36:29.388Z,101836.38
2022-08-22T01:39:22.037Z,101839.50
2022-08-22T01:42:26.207Z,101830.47
2022-08-22T01:45:12.208Z,101833.63
2022-08-22T01:47:50.004Z,101827.72
2022-08-22T01:50:37.553Z,101825.38
2022-08-22T01:53:08.207Z,101824.97
2022-08-22T01:55:58.413Z,101827.72
2022-08-22T01:58:28.389Z,101832.84
2022-08-22T02:01:08.492Z,101830.09
2022-08-22T02:04:10.201Z,101823.00
2022-08-22T02:06:51.572Z,101824.97
2022-08-22T02:09:39.340Z,101819.09
2022-08-22T02:12:26.429Z,101829.69
2022-08-22T02:15:05.362Z,101823.81
2022-08-22T02:17:35.596Z,101830.50
2022-08-22T02:20:10.442Z,101823.44
2022-08-22T02:22:51.974Z,101815.56
2022-08-22T02:25:32.344Z,101809.69
2022-08-22T02:28:08.487Z,101811.22
2022-08-22T02:30:52.478Z,101811.22
2022-08-22T02:33:32.564Z,101807.69
2022-08-22T02:36:07.504Z,101817.16
2022-08-22T02:38:42.592Z,101812.06
2022-08-22T02:41:21.069Z,101811.66
2022-08-22T02:43:56.404Z,101811.28
2022-08-22T02:46:23.038Z,101801.44
2022-08-22T02:49:32.185Z,101803.03
2022-08-22T02:52:12.586Z,101801.88
2022-08-22T02:54:56.756Z,101808.53
2022-08-22T02:57:39.611Z,101807.00
2022-08-22T03:00:30.749Z,101803.44
2022-08-22T03:03:05.735Z,101801.88
2022-08-22T03:05:36.106Z,101803.47
2022-08-22T03:08:08.084Z,101803.88
2022-08-22T03:10:43.575Z,101803.88
2022-08-22T03:13:24.224Z,101793.28
2022-08-22T03:15:56.405Z,101801.13
2022-08-22T03:18:44.744Z,101801.13
2022-08-22T03:21:32.580Z,101795.22
2022-08-22T03:24:08.391Z,101796.78
2022-08-22T03:26:49.262Z,101797.59
2022-08-22T03:29:20.848Z,101784.22
2022-08-22T03:32:09.736Z,101792.47
2022-08-22T03:34:36.778Z,101781.47
2022-08-22T03:37:17.330Z,101782.66
2022-08-22T03:39:50.843Z,101781.09
2022-08-22T03:42:48.572Z,101781.44
2022-08-22T03:45:36.826Z,101775.16
2022-08-22T03:48:31.079Z,101774.75
2022-08-22T03:51:03.729Z,101771.63
2022-08-22T03:53:58.401Z,101777.50
2022-08-22T03:56:50.588Z,101780.63
2022-08-22T03:59:56.296Z,101783.00
2022-08-22T04:03:06.897Z,101780.25
2022-08-22T04:05:52.813Z,101780.63
2022-08-22T04:08:33.094Z,101782.19
2022-08-22T04:11:30.645Z,101786.91
2022-08-22T04:14:12.445Z,101786.91
2022-08-22T04:17:07.102Z,101782.19
2022-08-22T04:19:58.071Z,101784.94
2022-08-22T04:22:50.924Z,101791.25
2022-08-22T04:25:23.749Z,101784.94
2022-08-22T04:28:14.862Z,101788.06
2022-08-22T04:30:50.244Z,101792.41
2022-08-22T04:33:24.540Z,101787.69
2022-08-22T04:36:05.164Z,101793.56
2022-08-22T04:38:41.025Z,101797.47
2022-08-22T04:41:12.176Z,101797.91
2022-08-22T04:43:58.887Z,101794.72
2022-08-22T04:46:37.306Z,101796.31
2022-08-22T04:49:29.216Z,101790.81
2022-08-22T04:52:09.166Z,101797.06
2022-08-22T04:54:56.352Z,101801.81
2022-08-22T04:57:36.899Z,101801.81
2022-08-22T05:00:07.584Z,101801.03
2022-08-22T05:02:37.659Z,101805.72
2022-08-22T05:05:13.619Z,101800.66
2022-08-22T05:07:47.230Z,101805.00
2022-08-22T05:10:19.489Z,101811.66
2022-08-22T05:12:59.983Z,101805.34
2022-08-22T05:15:33.552Z,101803.41
2022-08-22T05:18:07.333Z,101800.28
2022-08-22T05:20:35.279Z,101807.31
2022-08-22T05:23:17.671Z,101805.34
2022-08-22T05:25:46.873Z,101797.91
2022-08-22T05:28:34.382Z,101803.78
2022-08-22T05:31:13.930Z,101807.69
2022-08-22T05:33:50.493Z,101818.72
2022-08-22T05:36:24.137Z,101823.41
2022-08-22T05:38:59.081Z,101823.81
2022-08-22T05:41:28.885Z,101830.50
2022-08-22T05:43:55.928Z,101835.22
2022-08-22T05:46:27.131Z,101834.44
2022-08-22T05:48:59.849Z,101838.72
2022-08-22T05:51:39.543Z,101842.25
2022-08-22T05:54:21.536Z,101832.06
2022-08-22T05:57:11.287Z,101838.75
2022-08-22T05:59:42.594Z,101828.88
2022-08-22T06:02:16.596Z,101828.06
2022-08-22T06:04:44.019Z,101830.81
2022-08-22T06:07:20.502Z,101832.72
2022-08-22T06:09:46.991Z,101834.31
2022-08-22T06:12:22.278Z,101840.59
2022-08-22T06:15:20.918Z,101843.28
2022-08-22T06:17:51.033Z,101842.91
2022-08-22T06:20:25.230Z,101842.13
2022-08-22T06:22:57.724Z,101848.03
2022-08-22T06:25:30.037Z,101848.03
2022-08-22T06:28:01.003Z,101845.28
2022-08-22T06:30:29.767Z,101856.28
2022-08-22T06:33:06.321Z,101853.13
2022-08-22T06:35:59.097Z,101857.41
2022-08-22T06:38:32.383Z,101853.06
2022-08-22T06:41:02.965Z,101864.06
2022-08-22T06:43:42.467Z,101856.16
2022-08-22T06:46:13.103Z,101866.34
2022-08-22T06:48:41.272Z,101867.50
2022-08-22T06:51:08.788Z,101865.59
2022-08-22T06:53:45.960Z,101858.53
2022-08-22T06:56:38.945Z,101862.84
2022-08-22T06:59:12.189Z,101870.31
2022-08-22T07:01:48.108Z,101873.00
2022-08-22T07:04:18.584Z,101878.91
2022-08-22T07:06:50.120Z,101870.25
2022-08-22T07:09:28.123Z,101871.03
2022-08-22T07:11:57.630Z,101869.41
2022-08-22T07:14:28.502Z,101872.94
2022-08-22T07:17:02.455Z,101871.72
2022-08-22T07:19:35.881Z,101868.56
2022-08-22T07:22:16.068Z,101864.66
2022-08-22T07:24:50.942Z,101866.19
2022-08-22T07:27:28.886Z,101863.41
2022-08-22T07:30:03.987Z,101855.09
2022-08-22T07:32:50.343Z,101858.97
2022-08-22T07:35:23.373Z,101860.59
2022-08-22T07:38:04.535Z,101862.13
2022-08-22T07:40:46.516Z,101861.34
2022-08-22T07:43:24.959Z,101853.44
2022-08-22T07:45:57.542Z,101852.69
2022-08-22T07:48:33.136Z,101855.47
2022-08-22T07:51:07.881Z,101846.03
2022-08-22T07:53:42.592Z,101853.78
2022-08-22T07:56:16.604Z,101850.56
2022-08-22T07:58:47.852Z,101847.69
2022-08-22T08:01:19.809Z,101842.91
2022-08-22T08:03:55.079Z,101842.13
2022-08-22T08:06:24.302Z,101832.56
2022-08-22T08:08:52.962Z,101832.06
2022-08-22T08:11:22.686Z,101835.56
2022-08-22T08:13:54.760Z,101826.47
2022-08-22T08:16:25.188Z,101820.91
2022-08-22T08:18:55.175Z,101821.22
2022-08-22T08:21:26.328Z,101814.03
2022-08-22T08:23:54.035Z,101812.81
2022-08-22T08:26:26.946Z,101809.56
2022-08-22T08:28:57.198Z,101812.25
2022-08-22T08:34:10.141Z,101810.91
2022-08-22T08:36:48.197Z,101817.16
2022-08-22T08:39:34.929Z,101813.16
2022-08-22T08:42:12.089Z,101817.84
2022-08-22T08:44:39.545Z,101817.00
2022-08-22T08:47:21.075Z,101808.69
2022-08-22T08:50:05.831Z,101809.78
2022-08-22T08:53:03.643Z,101805.75
2022-08-22T08:55:47.637Z,101808.84
2022-08-22T08:58:35.882Z,101814.63
2022-08-22T09:01:31.017Z,101814.22
2022-08-22T09:04:35.809Z,101803.50
2022-08-22T09:07:21.332Z,101818.50
2022-08-22T09:10:29.385Z,101806.19
2022-08-22T09:13:14.944Z,101803.38
2022-08-22T09:15:58.564Z,101803.66
2022-08-22T09:18:51.072Z,101806.00
2022-08-22T09:21:37.618Z,101807.91
2022-08-22T09:24:24.449Z,101805.50
2022-08-22T09:27:01.252Z,101811.75
2022-08-22T09:29:54.515Z,101804.59
2022-08-22T09:32:29.520Z,101798.59
2022-08-22T09:34:59.546Z,101795.34
2022-08-22T09:37:40.220Z,101795.97
2022-08-22T09:40:19.594Z,101796.69
2022-08-22T09:43:06.223Z,101789.13
2022-08-22T09:45:36.159Z,101794.59
2022-08-22T09:48:18.809Z,101792.47
2022-08-22T09:51:04.636Z,101792.41
2022-08-22T09:54:06.493Z,101782.06
2022-08-22T09:56:51.233Z,101785.88
2022-08-22T09:59:23.416Z,101776.28
2022-08-22T10:02:32.389Z,101776.59
2022-08-22T10:05:09.029Z,101779.59
2022-08-22T10:07:52.770Z,101772.03
2022-08-22T10:10:32.608Z,101769.13
2022-08-22T10:13:10.517Z,101770.09
2022-08-22T10:15:48.476Z,101765.59
2022-08-22T10:18:36.837Z,101771.38
2022-08-22T10:21:21.935Z,101766.56
2022-08-22T10:23:59.197Z,101764.91
2022-08-22T10:26:42.977Z,101760.50
2022-08-22T10:29:15.551Z,101762.31
2022-08-22T10:31:58.901Z,101761.41
2022-08-22T10:34:36.218Z,101754.13
2022-08-22T10:37:23.905Z,101750.84
2022-08-22T10:40:03.005Z,101756.66
2022-08-22T10:42:38.853Z,101748.69
2022-08-22T10:45:36.930Z,101748.16
2022-08-22T10:48:04.525Z,101739.84
2022-08-22T10:50:42.929Z,101739.31
2022-08-22T10:53:30.697Z,101739.56
2022-08-22T10:56:21.817Z,101735.72
2022-08-22T10:58:56.102Z,101740.66
2022-08-22T11:01:37.823Z,101738.81
2022-08-22T11:04:40.859Z,101732.88
2022-08-22T11:07:36.366Z,101736.34
2022-08-22T11:10:21.258Z,101734.69
2022-08-22T11:13:03.475Z,101747.22
2022-08-22T11:15:52.933Z,101743.91
2022-08-22T11:18:30.458Z,101748.03
2022-08-22T11:21:09.388Z,101747.72
2022-08-22T11:23:45.683Z,101742.84
2022-08-22T11:26:47.314Z,101737.38
2022-08-22T11:29:26.386Z,101740.16
2022-08-22T11:32:11.481Z,101732.66
2022-08-22T11:34:57.157Z,101733.06
2022-08-22T11:37:43.233Z,101738.38
2022-08-22T11:40:27.339Z,101729.97
2022-08-22T11:43:07.743Z,101730.75
2022-08-22T11:45:46.747Z,101725.19
2022-08-22T11:48:27.641Z,101731.97
2022-08-22T11:51:13.123Z,101734.63
2022-08-22T11:53:52.176Z,101736.19
2022-08-22T11:56:34.395Z,101736.88
2022-08-22T11:59:01.939Z,101732.44
2022-08-22T12:01:39.600Z,101726.00
2022-08-22T12:04:10.432Z,101723.56
2022-08-22T12:06:56.818Z,101727.91
2022-08-22T12:09:32.068Z,101725.13
2022-08-22T12:12:04.934Z,101729.00
2022-08-22T12:14:48.331Z,101717.47
2022-08-22T12:17:50.823Z,101716.59
2022-08-22T12:20:27.154Z,101720.91
2022-08-22T12:22:55.525Z,101711.72
2022-08-22T12:25:46.785Z,101713.25
2022-08-22T12:28:31.287Z,101717.47
2022-08-22T12:31:17.738Z,101721.69
2022-08-22T12:33:52.414Z,101716.47
2022-08-22T12:36:43.258Z,101718.25
2022-08-22T12:39:27.344Z,101714.94
2022-08-22T12:42:09.672Z,101704.50
2022-08-22T12:44:56.297Z,101702.41
2022-08-22T12:47:32.280Z,101697.81
2022-08-22T12:50:07.546Z,101705.03
2022-08-22T12:53:20.311Z,101697.84
2022-08-22T12:55:58.041Z,101694.94
2022-08-22T12:58:55.540Z,101693.75
2022-08-22T13:01:34.138Z,101690.97
2022-08-22T13:04:05.422Z,101684.19
2022-08-22T13:06:35.821Z,101690.63
2022-08-22T13:09:09.867Z,101677.63
2022-08-22T13:11:39.902Z,101681.31
2022-08-22T13:14:09.741Z,101678.66
2022-08-22T13:16:52.858Z,101681.22
2022-08-22T13:19:23.901Z,101676.53
2022-08-22T13:22:02.342Z,101677.84
2022-08-22T13:24:38.564Z,101679.22
2022-08-22T13:27:15.089Z,101677.63
2022-08-22T13:29:47.046Z,101675.63
2022-08-22T13:32:26.368Z,101680.25
2022-08-22T13:34:56.963Z,101676.38
2022-08-22T13:37:34.550Z,101675.03
2022-08-22T13:40:05.998Z,101664.94
2022-08-22T13:42:40.062Z,101659.72
2022-08-22T13:45:15.546Z,101653.44
2022-08-22T13:47:51.758Z,101650.22
2022-08-22T13:50:24.203Z,101654.41
2022-08-22T13:53:02.303Z,101648.53
2022-08-22T13:55:38.277Z,101658.41
2022-08-22T13:58:26.848Z,101658.09
2022-08-22T14:00:57.814Z,101657.00
2022-08-22T14:03:35.037Z,101654.53
2022-08-22T14:06:35.321Z,101649.91
2022-08-22T14:09:03.429Z,101650.84
2022-08-22T14:11:43.718Z,101648.97
2022-08-22T14:14:11.018Z,101649.63
2022-08-22T14:16:47.663Z,101640.69
2022-08-22T14:19:28.373Z,101643.69
2022-08-22T14:22:02.723Z,101643.09
2022-08-22T14:24:38.878Z,101644.63
2022-08-22T14:27:16.988Z,101642.63
2022-08-22T14:29:52.451Z,101638.16
2022-08-22T14:32:35.561Z,101637.41
2022-08-22T14:35:17.037Z,101637.84
2022-08-22T14:37:54.338Z,101627.06
2022-08-22T14:40:30.050Z,101627.50
2022-08-22T14:43:07.393Z,101630.16
2022-08-22T14:45:38.997Z,101624.75
2022-08-22T14:48:31.655Z,101624.47
2022-08-22T14:51:01.045Z,101624.34
2022-08-22T14:53:33.662Z,101619.25
2022-08-22T14:56:04.018Z,101617.25
2022-08-22T14:58:45.427Z,101621.13
2022-08-22T15:01:15.841Z,101613.09
2022-08-22T15:03:51.182Z,101613.44
2022-08-22T15:06:47.587Z,101612.19
2022-08-22T15:09:33.977Z,101612.50
2022-08-22T15:12:03.802Z,101608.47
2022-08-22T15:14:48.953Z,101604.81
2022-08-22T15:17:34.747Z,101602.38
2022-08-22T15:20:11.742Z,101597.25
2022-08-22T15:22:40.910Z,101600.34
2022-08-22T15:25:16.571Z,101604.66
2022-08-22T15:27:55.780Z,101599.44
2022-08-22T15:30:32.978Z,101599.28
2022-08-22T15:33:11.397Z,101595.75
2022-08-22T15:35:39.530Z,101595.44
2022-08-22T15:38:27.620Z,101595.44
2022-08-22T15:40:55.831Z,101591.88
2022-08-22T15:43:34.884Z,101591.88
2022-08-22T15:46:09.964Z,101591.72
2022-08-22T15:48:57.612Z,101591.28
2022-08-22T15:51:36.852Z,101589.25
2022-08-22T15:54:24.220Z,101587.56
2022-08-22T15:56:51.906Z,101580.59
2022-08-22T15:59:26.365Z,101588.16
2022-08-22T16:01:58.845Z,101584.63
2022-08-22T16:04:33.963Z,101586.94
2022-08-22T16:07:02.596Z,101579.69
2022-08-22T16:09:43.534Z,101582.00
2022-08-22T16:12:29.547Z,101574.91
2022-08-22T16:14:56.997Z,101579.06
2022-08-22T16:17:29.540Z,101573.50
2022-08-22T16:20:20.029Z,101561.13
2022-08-22T16:22:56.501Z,101563.91
2022-08-22T16:25:44.963Z,101560.38
2022-08-22T16:28:56.404Z,101561.59
2022-08-22T16:31:24.810Z,101559.28
2022-08-22T16:33:51.403Z,101559.72
2022-08-22T16:36:39.649Z,101554.31
2022-08-22T16:39:31.362Z,101555.09
2022-08-22T16:42:21.695Z,101555.53
2022-08-22T16:45:01.820Z,101551.66
2022-08-22T16:47:31.208Z,101550.56
2022-08-22T16:50:22.409Z,101557.34
2022-08-22T16:53:09.128Z,101545.91
2022-08-22T16:55:42.903Z,101549.94
2022-08-22T16:58:55.865Z,101550.38
2022-08-22T17:01:47.837Z,101555.31
2022-08-22T17:04:26.949Z,101553.00
2022-08-22T17:07:23.577Z,101546.81
2022-08-22T17:10:18.885Z,101545.41
2022-08-22T17:13:13.042Z,101548.19
2022-08-22T17:15:43.594Z,101539.22
2022-08-22T17:18:21.300Z,101542.75
2022-08-22T17:21:04.511Z,101540.44
2022-08-22T17:23:48.730Z,101538.13
2022-08-22T17:26:22.365Z,101544.13
2022-08-22T17:29:02.348Z,101537.94
2022-08-22T17:31:43.152Z,101546.09
2022-08-22T17:34:42.580Z,101547.47
2022-08-22T17:37:09.278Z,101546.38
2022-08-22T17:39:57.098Z,101544.06
2022-08-22T17:42:41.033Z,101545.09
2022-08-22T17:45:19.531Z,101550.78
2022-08-22T17:47:54.900Z,101552.91
2022-08-22T17:50:30.994Z,101556.28
2022-08-22T17:53:16.458Z,101561.84
2022-08-22T17:56:11.248Z,101557.38
2022-08-22T17:58:48.887Z,101556.84
2022-08-22T18:22:37.982Z,101557.69
2022-08-22T18:26:49.554Z,101560.28
2022-08-22T18:30:36.699Z,101557.19
2022-08-22T18:43:17.901Z,101565.88
2022-08-22T18:48:33.975Z,101576.56
2022-08-22T18:51:24.638Z,101578.69
2022-08-22T18:54:04.559Z,101580.91
2022-08-22T18:56:31.025Z,101585.91
2022-08-22T18:59:12.816Z,101590.81
2022-08-22T19:01:50.842Z,101588.91
2022-08-22T19:04:45.767Z,101594.38
2022-08-22T19:07:26.161Z,101602.03
2022-08-22T19:10:17.994Z,101601.34
2022-08-22T19:13:08.039Z,101605.47
2022-08-22T19:15:55.597Z,101610.13
2022-08-22T19:18:24.086Z,101605.25
2022-08-22T19:21:31.656Z,101619.22
2022-08-22T19:23:58.412Z,101619.44
2022-08-22T19:26:28.218Z,101618.41
2022-08-22T19:29:01.742Z,101623.72
2022-08-22T19:31:35.269Z,101626.25
2022-08-22T19:34:16.180Z,101626.78
2022-08-22T19:36:45.609Z,101621.03
2022-08-22T19:39:41.056Z,101626.34
2022-08-22T19:42:19.932Z,101613.38
2022-08-22T19:45:00.803Z,101621.63
2022-08-22T19:47:34.713Z,101618.06
2022-08-22T19:50:13.870Z,101616.81
2022-08-22T19:52:56.672Z,101616.19
2022-08-22T19:55:51.409Z,101606.09
2022-08-22T19:58:32.530Z,101618.91
2022-08-22T20:01:24.297Z,101609.09
2022-08-22T20:04:09.145Z,101606.13
2022-08-22T20:06:51.933Z,101608.97
2022-08-22T20:09:26.501Z,101609.25
2022-08-22T20:12:13.347Z,101603.88
2022-08-22T20:14:44.738Z,101604.41
2022-08-22T20:17:24.270Z,101605.72
2022-08-22T20:22:52.951Z,101607.53
2022-08-22T20:25:41.584Z,101617.03
2022-08-22T20:28:27.392Z,101612.44
2022-08-22T20:30:59.274Z,101612.97
2022-08-22T20:33:33.489Z,101604.75
2022-08-22T20:36:06.124Z,101602.50
2022-08-22T20:38:55.440Z,101597.50
2022-08-22T20:41:30.487Z,101601.19
2022-08-22T20:44:06.534Z,101596.84
2022-08-22T20:46:53.623Z,101599.25
2022-08-22T20:49:26.836Z,101593.81
2022-08-22T20:51:57.907Z,101591.47
2022-08-22T20:54:27.393Z,101599.41
2022-08-22T20:56:57.576Z,101595.88
2022-08-22T20:59:36.166Z,101594.75
2022-08-22T21:02:10.487Z,101594.41
2022-08-22T21:04:44.361Z,101594.47
2022-08-22T21:07:11.049Z,101589.47
2022-08-22T21:09:55.999Z,101591.53
2022-08-22T21:12:24.037Z,101591.19
2022-08-22T21:14:50.583Z,101585.75
2022-08-22T21:17:22.992Z,101588.94
2022-08-22T21:19:49.620Z,101590.13
2022-08-22T21:22:24.726Z,101591.75
2022-08-22T21:24:55.420Z,101591.41
2022-08-22T21:27:27.590Z,101582.00
2022-08-22T21:29:55.367Z,101582.84
2022-08-22T21:32:34.318Z,101586.41
2022-08-22T21:35:02.074Z,101587.59
2022-08-22T21:37:44.856Z,101578.97
2022-08-22T21:40:15.355Z,101581.03
2022-08-22T21:42:45.204Z,101576.69
2022-08-22T21:45:27.892Z,101579.47
2022-08-22T21:47:54.998Z,101582.31
2022-08-22T21:50:23.230Z,101573.25
2022-08-22T21:52:53.833Z,101576.78
2022-08-22T21:55:27.486Z,101582.47
2022-08-22T21:58:04.696Z,101577.78
2022-08-22T22:00:48.583Z,101578.19
2022-08-22T22:03:18.080Z,101578.28
2022-08-22T22:05:44.715Z,101583.44
2022-08-22T22:08:12.131Z,101584.22
2022-08-22T22:10:41.711Z,101585.44
2022-08-22T22:13:08.948Z,101588.66
2022-08-22T22:15:44.016Z,101574.16
2022-08-22T22:18:13.699Z,101573.00
2022-08-22T22:20:41.167Z,101574.97
2022-08-22T22:23:09.298Z,101575.75
2022-08-22T22:25:42.236Z,101576.97
2022-08-22T22:28:17.068Z,101573.44
2022-08-22T22:30:45.183Z,101581.38
2022-08-22T22:33:11.968Z,101577.47
2022-08-22T22:35:40.150Z,101583.41
2022-08-22T22:38:07.658Z,101583.81
2022-08-22T22:40:35.105Z,101580.00
2022-08-22T22:43:02.059Z,101581.28
2022-08-22T22:45:28.505Z,101575.47
2022-08-22T22:47:55.058Z,101582.19
2022-08-22T22:50:21.654Z,101578.63
2022-08-22T22:52:48.131Z,101588.91
2022-08-22T22:55:24.252Z,101583.78
2022-08-22T22:57:58.439Z,101587.34
2022-08-22T23:00:25.782Z,101584.16
2022-08-22T23:02:57.160Z,101581.84
2022-08-22T23:05:23.632Z,101584.59
2022-08-22T23:07:50.247Z,101580.25
2022-08-22T23:10:21.373Z,101586.56
2022-08-22T23:12:48.420Z,101585.78
2022-08-22T23:15:14.874Z,101583.44
2022-08-22T23:17:42.234Z,101577.91
2022-08-22T23:20:09.031Z,101587.41
2022-08-22T23:22:35.500Z,101588.63
2022-08-22T23:25:02.258Z,101590.16
2022-08-22T23:27:28.772Z,101583.88
2022-08-22T23:29:55.233Z,101589.44
2022-08-22T23:32:21.641Z,101579.63
2022-08-22T23:34:49.920Z,101582.03
2022-08-22T23:37:20.139Z,101583.66
2022-08-22T23:39:47.087Z,101582.06
2022-08-22T23:42:16.532Z,101573.03
2022-08-22T23:44:45.157Z,101572.63
2022-08-22T23:47:13.258Z,101575.44
2022-08-22T23:49:40.695Z,101563.69
2022-08-22T23:52:09.279Z,101562.53
2022-08-22T23:54:36.015Z,101554.28
2022-08-22T23:57:12.141Z,101562.53
2022-08-22T23:59:46.217Z,101560.19
